sensor_id;sensor_type;location;lat;lon;timestamp;temperature;humidity
56861;DHT22;42744;51.094;3.490;2023-09-19T00:01:42;14.10;99.90
56861;DHT22;42744;51.094;3.490;2023-09-19T00:04:12;14.10;99.90
56861;DHT22;42744;51.094;3.490;2023-09-19T00:06:38;14.10;99.90
56861;DHT22;42744;51.094;3.490;2023-09-19T00:09:05;14.10;99.90
56861;DHT22;42744;51.094;3.490;2023-09-19T00:11:31;14.00;99.90
56861;DHT22;42744;51.094;3.490;2023-09-19T00:13:57;14.00;99.90
56861;DHT22;42744;51.094;3.490;2023-09-19T00:16:26;14.00;99.90
56861;DHT22;42744;51.094;3.490;2023-09-19T00:18:53;14.00;99.90
56861;DHT22;42744;51.094;3.490;2023-09-19T00:21:19;14.00;99.90
56861;DHT22;42744;51.094;3.490;2023-09-19T00:23:45;13.90;99.90
56861;DHT22;42744;51.094;3.490;2023-09-19T00:26:11;13.90;99.90
56861;DHT22;42744;51.094;3.490;2023-09-19T00:28:38;13.90;99.90
56861;DHT22;42744;51.094;3.490;2023-09-19T00:31:08;13.90;99.90
56861;DHT22;42744;51.094;3.490;2023-09-19T00:33:34;13.90;99.90
56861;DHT22;42744;51.094;3.490;2023-09-19T00:36:00;13.90;99.90
56861;DHT22;42744;51.094;3.490;2023-09-19T00:38:30;13.90;99.90
56861;DHT22;42744;51.094;3.490;2023-09-19T00:40:57;13.90;99.90
56861;DHT22;42744;51.094;3.490;2023-09-19T00:43:25;13.90;99.90
56861;DHT22;42744;51.094;3.490;2023-09-19T00:45:54;13.90;99.90
56861;DHT22;42744;51.094;3.490;2023-09-19T00:48:22;13.90;99.90
56861;DHT22;42744;51.094;3.490;2023-09-19T00:50:49;13.90;99.90
56861;DHT22;42744;51.094;3.490;2023-09-19T00:53:22;13.90;99.90
56861;DHT22;42744;51.094;3.490;2023-09-19T00:55:51;13.90;99.90
56861;DHT22;42744;51.094;3.490;2023-09-19T00:58:18;13.80;99.90
56861;DHT22;42744;51.094;3.490;2023-09-19T01:00:44;13.90;99.90
56861;DHT22;42744;51.094;3.490;2023-09-19T01:03:11;13.90;99.90
56861;DHT22;42744;51.094;3.490;2023-09-19T01:05:40;13.90;99.90
56861;DHT22;42744;51.094;3.490;2023-09-19T01:08:06;13.90;99.90
56861;DHT22;42744;51.094;3.490;2023-09-19T01:10:33;13.90;99.90
56861;DHT22;42744;51.094;3.490;2023-09-19T01:15:48;13.90;99.90
56861;DHT22;42744;51.094;3.490;2023-09-19T01:18:39;13.90;99.90
56861;DHT22;42744;51.094;3.490;2023-09-19T01:23:56;13.90;99.90
56861;DHT22;42744;51.094;3.490;2023-09-19T01:29:12;13.90;99.90
56861;DHT22;42744;51.094;3.490;2023-09-19T01:31:46;13.90;99.90
56861;DHT22;42744;51.094;3.490;2023-09-19T01:34:12;13.90;99.90
56861;DHT22;42744;51.094;3.490;2023-09-19T01:36:38;13.90;99.90
56861;DHT22;42744;51.094;3.490;2023-09-19T01:39:07;13.90;99.90
56861;DHT22;42744;51.094;3.490;2023-09-19T01:41:47;14.00;99.90
56861;DHT22;42744;51.094;3.490;2023-09-19T01:44:31;14.00;99.90
56861;DHT22;42744;51.094;3.490;2023-09-19T01:47:04;14.00;99.90
56861;DHT22;42744;51.094;3.490;2023-09-19T01:49:37;14.00;99.90
56861;DHT22;42744;51.094;3.490;2023-09-19T01:52:11;14.10;99.90
56861;DHT22;42744;51.094;3.490;2023-09-19T01:55:05;14.00;99.90
56861;DHT22;42744;51.094;3.490;2023-09-19T02:00:23;14.10;99.90
56861;DHT22;42744;51.094;3.490;2023-09-19T02:02:50;14.10;99.90
56861;DHT22;42744;51.094;3.490;2023-09-19T02:05:24;14.10;99.90
56861;DHT22;42744;51.094;3.490;2023-09-19T02:07:52;14.10;99.90
56861;DHT22;42744;51.094;3.490;2023-09-19T02:10:19;14.10;99.90
56861;DHT22;42744;51.094;3.490;2023-09-19T02:12:45;14.10;99.90
56861;DHT22;42744;51.094;3.490;2023-09-19T02:15:14;14.10;99.90
56861;DHT22;42744;51.094;3.490;2023-09-19T02:17:42;14.20;99.90
56861;DHT22;42744;51.094;3.490;2023-09-19T02:20:10;14.20;99.90
56861;DHT22;42744;51.094;3.490;2023-09-19T02:22:41;14.20;99.90
56861;DHT22;42744;51.094;3.490;2023-09-19T02:25:08;14.20;99.90
56861;DHT22;42744;51.094;3.490;2023-09-19T02:27:35;14.20;99.90
56861;DHT22;42744;51.094;3.490;2023-09-19T02:30:03;14.20;99.90
56861;DHT22;42744;51.094;3.490;2023-09-19T02:32:29;14.20;99.90
56861;DHT22;42744;51.094;3.490;2023-09-19T02:34:57;14.20;99.90
56861;DHT22;42744;51.094;3.490;2023-09-19T02:37:29;14.30;99.90
56861;DHT22;42744;51.094;3.490;2023-09-19T02:39:55;14.30;99.90
56861;DHT22;42744;51.094;3.490;2023-09-19T02:42:22;14.30;99.90
56861;DHT22;42744;51.094;3.490;2023-09-19T02:44:48;14.30;99.90
56861;DHT22;42744;51.094;3.490;2023-09-19T02:47:14;14.40;99.90
56861;DHT22;42744;51.094;3.490;2023-09-19T02:49:41;14.40;99.90
56861;DHT22;42744;51.094;3.490;2023-09-19T02:52:09;14.40;99.90
56861;DHT22;42744;51.094;3.490;2023-09-19T02:54:37;14.40;99.90
56861;DHT22;42744;51.094;3.490;2023-09-19T02:57:03;14.40;99.90
56861;DHT22;42744;51.094;3.490;2023-09-19T02:59:33;14.40;99.90
56861;DHT22;42744;51.094;3.490;2023-09-19T03:02:02;14.50;99.90
56861;DHT22;42744;51.094;3.490;2023-09-19T03:04:29;14.50;99.90
56861;DHT22;42744;51.094;3.490;2023-09-19T03:06:57;14.40;99.90
56861;DHT22;42744;51.094;3.490;2023-09-19T03:09:26;14.50;99.90
56861;DHT22;42744;51.094;3.490;2023-09-19T03:11:52;14.50;99.90
56861;DHT22;42744;51.094;3.490;2023-09-19T03:14:18;14.50;99.90
56861;DHT22;42744;51.094;3.490;2023-09-19T03:16:46;14.50;99.90
56861;DHT22;42744;51.094;3.490;2023-09-19T03:19:13;14.50;99.90
56861;DHT22;42744;51.094;3.490;2023-09-19T03:21:41;14.50;99.90
56861;DHT22;42744;51.094;3.490;2023-09-19T03:24:07;14.50;99.90
56861;DHT22;42744;51.094;3.490;2023-09-19T03:26:35;14.50;99.90
56861;DHT22;42744;51.094;3.490;2023-09-19T03:29:04;14.50;99.90
56861;DHT22;42744;51.094;3.490;2023-09-19T03:31:33;14.50;99.90
56861;DHT22;42744;51.094;3.490;2023-09-19T03:33:59;14.50;99.90
56861;DHT22;42744;51.094;3.490;2023-09-19T03:36:25;14.50;99.90
56861;DHT22;42744;51.094;3.490;2023-09-19T03:38:54;14.50;99.90
56861;DHT22;42744;51.094;3.490;2023-09-19T03:41:19;14.50;99.90
56861;DHT22;42744;51.094;3.490;2023-09-19T03:43:46;14.50;99.90
56861;DHT22;42744;51.094;3.490;2023-09-19T03:46:12;14.50;99.90
56861;DHT22;42744;51.094;3.490;2023-09-19T03:48:40;14.50;99.90
56861;DHT22;42744;51.094;3.490;2023-09-19T03:51:06;14.40;99.90
56861;DHT22;42744;51.094;3.490;2023-09-19T03:53:32;14.40;99.90
56861;DHT22;42744;51.094;3.490;2023-09-19T03:55:58;14.40;99.90
56861;DHT22;42744;51.094;3.490;2023-09-19T03:58:26;14.40;99.90
56861;DHT22;42744;51.094;3.490;2023-09-19T04:00:55;14.30;99.90
56861;DHT22;42744;51.094;3.490;2023-09-19T04:03:22;14.30;99.90
56861;DHT22;42744;51.094;3.490;2023-09-19T04:05:48;14.20;99.90
56861;DHT22;42744;51.094;3.490;2023-09-19T04:08:14;14.20;99.90
56861;DHT22;42744;51.094;3.490;2023-09-19T04:10:43;14.20;99.90
56861;DHT22;42744;51.094;3.490;2023-09-19T04:13:10;14.20;99.90
56861;DHT22;42744;51.094;3.490;2023-09-19T04:15:36;14.20;99.90
56861;DHT22;42744;51.094;3.490;2023-09-19T04:18:03;14.10;99.90
56861;DHT22;42744;51.094;3.490;2023-09-19T04:20:29;14.20;99.90
56861;DHT22;42744;51.094;3.490;2023-09-19T04:22:56;14.10;99.90
56861;DHT22;42744;51.094;3.490;2023-09-19T04:25:22;14.10;99.90
56861;DHT22;42744;51.094;3.490;2023-09-19T04:27:48;14.10;99.90
56861;DHT22;42744;51.094;3.490;2023-09-19T04:30:13;14.10;99.90
56861;DHT22;42744;51.094;3.490;2023-09-19T04:32:41;14.10;99.90
56861;DHT22;42744;51.094;3.490;2023-09-19T04:35:09;14.10;99.90
56861;DHT22;42744;51.094;3.490;2023-09-19T04:37:40;14.00;99.90
56861;DHT22;42744;51.094;3.490;2023-09-19T04:40:08;14.00;99.90
56861;DHT22;42744;51.094;3.490;2023-09-19T04:42:40;14.00;99.90
56861;DHT22;42744;51.094;3.490;2023-09-19T04:45:07;14.00;99.90
56861;DHT22;42744;51.094;3.490;2023-09-19T04:47:36;14.00;99.90
56861;DHT22;42744;51.094;3.490;2023-09-19T04:50:08;14.00;99.90
56861;DHT22;42744;51.094;3.490;2023-09-19T04:52:41;14.00;99.90
56861;DHT22;42744;51.094;3.490;2023-09-19T04:55:12;14.00;99.90
56861;DHT22;42744;51.094;3.490;2023-09-19T04:57:43;14.00;99.90
56861;DHT22;42744;51.094;3.490;2023-09-19T05:00:15;14.00;99.90
56861;DHT22;42744;51.094;3.490;2023-09-19T05:02:43;14.00;99.90
56861;DHT22;42744;51.094;3.490;2023-09-19T05:05:09;14.00;99.90
56861;DHT22;42744;51.094;3.490;2023-09-19T05:07:36;14.10;99.90
56861;DHT22;42744;51.094;3.490;2023-09-19T05:10:03;14.10;99.90
56861;DHT22;42744;51.094;3.490;2023-09-19T05:12:35;14.10;99.90
56861;DHT22;42744;51.094;3.490;2023-09-19T05:15:03;14.10;99.90
56861;DHT22;42744;51.094;3.490;2023-09-19T05:17:29;14.10;99.90
56861;DHT22;42744;51.094;3.490;2023-09-19T05:19:55;14.10;99.90
56861;DHT22;42744;51.094;3.490;2023-09-19T05:22:21;14.10;99.90
56861;DHT22;42744;51.094;3.490;2023-09-19T05:24:50;14.10;99.90
56861;DHT22;42744;51.094;3.490;2023-09-19T05:27:17;14.10;99.90
56861;DHT22;42744;51.094;3.490;2023-09-19T05:29:43;14.10;99.90
56861;DHT22;42744;51.094;3.490;2023-09-19T05:32:10;14.10;99.90
56861;DHT22;42744;51.094;3.490;2023-09-19T05:34:38;14.10;99.90
56861;DHT22;42744;51.094;3.490;2023-09-19T05:37:04;14.10;99.90
56861;DHT22;42744;51.094;3.490;2023-09-19T05:39:34;14.10;99.90
56861;DHT22;42744;51.094;3.490;2023-09-19T05:42:00;14.10;99.90
56861;DHT22;42744;51.094;3.490;2023-09-19T05:44:26;14.20;99.90
56861;DHT22;42744;51.094;3.490;2023-09-19T05:46:53;14.20;99.90
56861;DHT22;42744;51.094;3.490;2023-09-19T05:49:22;14.20;99.90
56861;DHT22;42744;51.094;3.490;2023-09-19T05:51:50;14.20;99.90
56861;DHT22;42744;51.094;3.490;2023-09-19T05:54:20;14.20;99.90
56861;DHT22;42744;51.094;3.490;2023-09-19T05:56:45;14.30;99.90
56861;DHT22;42744;51.094;3.490;2023-09-19T05:59:13;14.30;99.90
56861;DHT22;42744;51.094;3.490;2023-09-19T06:01:42;14.30;99.90
56861;DHT22;42744;51.094;3.490;2023-09-19T06:04:08;14.30;99.90
56861;DHT22;42744;51.094;3.490;2023-09-19T06:06:34;14.30;99.90
56861;DHT22;42744;51.094;3.490;2023-09-19T06:09:05;14.40;99.90
56861;DHT22;42744;51.094;3.490;2023-09-19T06:11:35;14.40;99.90
56861;DHT22;42744;51.094;3.490;2023-09-19T06:14:02;14.40;99.90
56861;DHT22;42744;51.094;3.490;2023-09-19T06:16:31;14.40;99.90
56861;DHT22;42744;51.094;3.490;2023-09-19T06:19:00;14.40;99.90
56861;DHT22;42744;51.094;3.490;2023-09-19T06:21:29;14.40;99.90
56861;DHT22;42744;51.094;3.490;2023-09-19T06:23:57;14.50;99.90
56861;DHT22;42744;51.094;3.490;2023-09-19T06:26:25;14.40;99.90
56861;DHT22;42744;51.094;3.490;2023-09-19T06:28:52;14.50;99.90
56861;DHT22;42744;51.094;3.490;2023-09-19T06:31:18;14.50;99.90
56861;DHT22;42744;51.094;3.490;2023-09-19T06:33:47;14.50;99.90
56861;DHT22;42744;51.094;3.490;2023-09-19T06:36:12;14.50;99.90
56861;DHT22;42744;51.094;3.490;2023-09-19T06:38:38;14.60;99.90
56861;DHT22;42744;51.094;3.490;2023-09-19T06:41:05;14.60;99.90
56861;DHT22;42744;51.094;3.490;2023-09-19T06:43:32;14.60;99.90
56861;DHT22;42744;51.094;3.490;2023-09-19T06:46:00;14.60;99.90
56861;DHT22;42744;51.094;3.490;2023-09-19T06:48:27;14.70;99.90
56861;DHT22;42744;51.094;3.490;2023-09-19T06:50:55;14.70;99.90
56861;DHT22;42744;51.094;3.490;2023-09-19T06:53:21;14.70;99.90
56861;DHT22;42744;51.094;3.490;2023-09-19T06:55:50;14.70;99.90
56861;DHT22;42744;51.094;3.490;2023-09-19T06:58:16;14.70;99.90
56861;DHT22;42744;51.094;3.490;2023-09-19T07:00:42;14.80;99.90
56861;DHT22;42744;51.094;3.490;2023-09-19T07:03:10;14.80;99.90
56861;DHT22;42744;51.094;3.490;2023-09-19T07:05:40;14.80;99.90
56861;DHT22;42744;51.094;3.490;2023-09-19T07:08:10;14.90;99.90
56861;DHT22;42744;51.094;3.490;2023-09-19T07:10:39;14.90;99.90
56861;DHT22;42744;51.094;3.490;2023-09-19T07:13:15;14.90;99.90
56861;DHT22;42744;51.094;3.490;2023-09-19T07:15:43;15.00;99.90
56861;DHT22;42744;51.094;3.490;2023-09-19T07:18:13;15.00;99.90
56861;DHT22;42744;51.094;3.490;2023-09-19T07:20:40;15.10;99.90
56861;DHT22;42744;51.094;3.490;2023-09-19T07:23:14;15.20;99.90
56861;DHT22;42744;51.094;3.490;2023-09-19T07:25:41;15.20;99.90
56861;DHT22;42744;51.094;3.490;2023-09-19T07:28:06;15.20;99.90
56861;DHT22;42744;51.094;3.490;2023-09-19T07:30:36;15.30;99.90
56861;DHT22;42744;51.094;3.490;2023-09-19T07:33:03;15.30;99.90
56861;DHT22;42744;51.094;3.490;2023-09-19T07:35:31;15.30;99.90
56861;DHT22;42744;51.094;3.490;2023-09-19T07:37:57;15.40;99.90
56861;DHT22;42744;51.094;3.490;2023-09-19T07:40:24;15.50;99.90
56861;DHT22;42744;51.094;3.490;2023-09-19T07:42:52;15.50;99.90
56861;DHT22;42744;51.094;3.490;2023-09-19T07:45:18;15.60;99.90
56861;DHT22;42744;51.094;3.490;2023-09-19T07:47:45;15.60;99.90
56861;DHT22;42744;51.094;3.490;2023-09-19T07:50:13;15.70;99.90
56861;DHT22;42744;51.094;3.490;2023-09-19T07:52:39;15.70;99.90
56861;DHT22;42744;51.094;3.490;2023-09-19T07:55:08;15.80;99.90
56861;DHT22;42744;51.094;3.490;2023-09-19T07:57:37;15.80;99.90
56861;DHT22;42744;51.094;3.490;2023-09-19T08:00:04;15.80;99.90
56861;DHT22;42744;51.094;3.490;2023-09-19T08:02:37;15.90;99.90
56861;DHT22;42744;51.094;3.490;2023-09-19T08:05:04;15.90;99.90
56861;DHT22;42744;51.094;3.490;2023-09-19T08:07:41;16.00;99.90
56861;DHT22;42744;51.094;3.490;2023-09-19T08:10:08;16.00;99.90
56861;DHT22;42744;51.094;3.490;2023-09-19T08:12:39;16.10;99.90
56861;DHT22;42744;51.094;3.490;2023-09-19T08:15:16;16.10;99.90
56861;DHT22;42744;51.094;3.490;2023-09-19T08:17:43;16.20;99.90
56861;DHT22;42744;51.094;3.490;2023-09-19T08:20:09;16.30;99.90
56861;DHT22;42744;51.094;3.490;2023-09-19T08:22:53;16.30;99.90
56861;DHT22;42744;51.094;3.490;2023-09-19T08:25:23;16.40;99.90
56861;DHT22;42744;51.094;3.490;2023-09-19T08:27:51;16.40;99.90
56861;DHT22;42744;51.094;3.490;2023-09-19T08:30:21;16.50;99.90
56861;DHT22;42744;51.094;3.490;2023-09-19T08:32:50;16.50;99.90
56861;DHT22;42744;51.094;3.490;2023-09-19T08:35:16;16.60;99.90
56861;DHT22;42744;51.094;3.490;2023-09-19T08:37:42;16.70;99.90
56861;DHT22;42744;51.094;3.490;2023-09-19T08:40:11;16.70;99.90
56861;DHT22;42744;51.094;3.490;2023-09-19T08:45:20;16.70;99.90
56861;DHT22;42744;51.094;3.490;2023-09-19T08:48:00;16.80;99.90
56861;DHT22;42744;51.094;3.490;2023-09-19T08:50:31;16.90;99.90
56861;DHT22;42744;51.094;3.490;2023-09-19T08:53:01;16.90;99.90
56861;DHT22;42744;51.094;3.490;2023-09-19T08:55:31;17.00;99.90
56861;DHT22;42744;51.094;3.490;2023-09-19T08:58:04;17.00;99.90
56861;DHT22;42744;51.094;3.490;2023-09-19T09:00:33;17.10;99.90
56861;DHT22;42744;51.094;3.490;2023-09-19T09:03:01;17.10;99.90
56861;DHT22;42744;51.094;3.490;2023-09-19T09:05:28;17.10;99.90
56861;DHT22;42744;51.094;3.490;2023-09-19T09:07:55;17.10;99.90
56861;DHT22;42744;51.094;3.490;2023-09-19T09:10:22;17.10;99.90
56861;DHT22;42744;51.094;3.490;2023-09-19T09:12:51;17.20;99.90
56861;DHT22;42744;51.094;3.490;2023-09-19T09:15:19;17.20;99.90
56861;DHT22;42744;51.094;3.490;2023-09-19T09:17:50;17.30;99.90
56861;DHT22;42744;51.094;3.490;2023-09-19T09:20:19;17.30;99.90
56861;DHT22;42744;51.094;3.490;2023-09-19T09:22:53;17.30;99.90
56861;DHT22;42744;51.094;3.490;2023-09-19T09:25:20;17.50;99.90
56861;DHT22;42744;51.094;3.490;2023-09-19T09:27:59;17.50;99.90
56861;DHT22;42744;51.094;3.490;2023-09-19T09:30:36;17.60;99.90
56861;DHT22;42744;51.094;3.490;2023-09-19T09:33:13;17.70;99.90
56861;DHT22;42744;51.094;3.490;2023-09-19T09:38:20;18.10;99.90
56861;DHT22;42744;51.094;3.490;2023-09-19T09:40:48;18.30;99.90
56861;DHT22;42744;51.094;3.490;2023-09-19T09:43:26;18.40;99.90
56861;DHT22;42744;51.094;3.490;2023-09-19T09:46:13;18.70;99.90
56861;DHT22;42744;51.094;3.490;2023-09-19T09:51:48;18.90;99.90
56861;DHT22;42744;51.094;3.490;2023-09-19T09:54:24;18.90;99.90
56861;DHT22;42744;51.094;3.490;2023-09-19T09:56:54;19.00;99.90
56861;DHT22;42744;51.094;3.490;2023-09-19T09:59:23;19.00;99.90
56861;DHT22;42744;51.094;3.490;2023-09-19T10:01:50;19.10;99.90
56861;DHT22;42744;51.094;3.490;2023-09-19T10:04:29;19.10;99.90
56861;DHT22;42744;51.094;3.490;2023-09-19T10:07:02;19.10;99.90
56861;DHT22;42744;51.094;3.490;2023-09-19T10:09:46;19.10;99.90
56861;DHT22;42744;51.094;3.490;2023-09-19T10:12:14;19.10;99.90
56861;DHT22;42744;51.094;3.490;2023-09-19T10:14:43;19.40;99.90
56861;DHT22;42744;51.094;3.490;2023-09-19T10:17:13;19.70;99.90
56861;DHT22;42744;51.094;3.490;2023-09-19T10:19:54;20.10;99.90
56861;DHT22;42744;51.094;3.490;2023-09-19T10:22:23;20.40;99.90
56861;DHT22;42744;51.094;3.490;2023-09-19T10:24:55;20.60;99.90
56861;DHT22;42744;51.094;3.490;2023-09-19T10:27:23;20.60;99.90
56861;DHT22;42744;51.094;3.490;2023-09-19T10:29:52;20.80;99.90
56861;DHT22;42744;51.094;3.490;2023-09-19T10:32:23;21.10;99.90
56861;DHT22;42744;51.094;3.490;2023-09-19T10:34:50;21.30;99.90
56861;DHT22;42744;51.094;3.490;2023-09-19T10:37:21;21.40;99.90
56861;DHT22;42744;51.094;3.490;2023-09-19T10:39:52;21.50;99.90
56861;DHT22;42744;51.094;3.490;2023-09-19T10:42:20;21.80;99.90
56861;DHT22;42744;51.094;3.490;2023-09-19T10:44:52;21.90;99.90
56861;DHT22;42744;51.094;3.490;2023-09-19T10:47:21;22.00;99.90
56861;DHT22;42744;51.094;3.490;2023-09-19T10:49:50;21.70;99.90
56861;DHT22;42744;51.094;3.490;2023-09-19T10:52:20;21.30;99.90
56861;DHT22;42744;51.094;3.490;2023-09-19T10:54:51;21.10;99.90
56861;DHT22;42744;51.094;3.490;2023-09-19T10:57:22;21.20;99.90
56861;DHT22;42744;51.094;3.490;2023-09-19T11:00:03;21.50;99.90
56861;DHT22;42744;51.094;3.490;2023-09-19T11:03:20;21.60;99.90
56861;DHT22;42744;51.094;3.490;2023-09-19T11:06:03;21.50;99.90
56861;DHT22;42744;51.094;3.490;2023-09-19T11:30:47;20.20;99.90
56861;DHT22;42744;51.094;3.490;2023-09-19T11:33:27;20.20;99.90
56861;DHT22;42744;51.094;3.490;2023-09-19T11:36:04;20.20;99.90
56861;DHT22;42744;51.094;3.490;2023-09-19T11:41:38;20.20;99.90
56861;DHT22;42744;51.094;3.490;2023-09-19T11:46:54;20.40;99.90
56861;DHT22;42744;51.094;3.490;2023-09-19T11:49:27;20.70;99.90
56861;DHT22;42744;51.094;3.490;2023-09-19T11:51:59;20.80;99.90
56861;DHT22;42744;51.094;3.490;2023-09-19T11:54:31;21.00;99.90
56861;DHT22;42744;51.094;3.490;2023-09-19T11:56:59;21.30;99.90
56861;DHT22;42744;51.094;3.490;2023-09-19T11:59:26;21.30;99.90
56861;DHT22;42744;51.094;3.490;2023-09-19T12:05:01;21.20;99.90
56861;DHT22;42744;51.094;3.490;2023-09-19T12:07:27;21.30;99.90
56861;DHT22;42744;51.094;3.490;2023-09-19T12:10:04;21.50;99.90
56861;DHT22;42744;51.094;3.490;2023-09-19T12:12:30;21.70;99.90
56861;DHT22;42744;51.094;3.490;2023-09-19T12:14:58;21.70;99.90
56861;DHT22;42744;51.094;3.490;2023-09-19T12:20:01;21.40;99.90
56861;DHT22;42744;51.094;3.490;2023-09-19T12:22:45;21.30;99.90
56861;DHT22;42744;51.094;3.490;2023-09-19T12:25:13;21.60;99.90
56861;DHT22;42744;51.094;3.490;2023-09-19T12:27:49;21.70;99.90
56861;DHT22;42744;51.094;3.490;2023-09-19T12:30:19;21.60;99.90
56861;DHT22;42744;51.094;3.490;2023-09-19T12:32:46;21.30;99.90
56861;DHT22;42744;51.094;3.490;2023-09-19T12:35:32;21.10;99.90
56861;DHT22;42744;51.094;3.490;2023-09-19T12:38:02;20.90;99.90
56861;DHT22;42744;51.094;3.490;2023-09-19T12:40:29;20.80;99.90
56861;DHT22;42744;51.094;3.490;2023-09-19T12:42:59;20.70;99.90
56861;DHT22;42744;51.094;3.490;2023-09-19T12:45:30;20.70;99.90
56861;DHT22;42744;51.094;3.490;2023-09-19T12:48:22;20.60;99.90
56861;DHT22;42744;51.094;3.490;2023-09-19T12:51:06;20.60;99.90
56861;DHT22;42744;51.094;3.490;2023-09-19T12:53:36;20.60;99.90
56861;DHT22;42744;51.094;3.490;2023-09-19T12:56:06;20.80;99.90
56861;DHT22;42744;51.094;3.490;2023-09-19T12:58:54;20.90;99.90
56861;DHT22;42744;51.094;3.490;2023-09-19T13:01:25;20.90;99.90
56861;DHT22;42744;51.094;3.490;2023-09-19T13:06:38;20.70;99.90
56861;DHT22;42744;51.094;3.490;2023-09-19T13:09:12;20.80;99.90
56861;DHT22;42744;51.094;3.490;2023-09-19T13:11:40;20.80;99.90
56861;DHT22;42744;51.094;3.490;2023-09-19T13:14:24;20.80;99.90
56861;DHT22;42744;51.094;3.490;2023-09-19T13:19:40;20.80;99.90
56861;DHT22;42744;51.094;3.490;2023-09-19T13:22:41;20.70;99.90
56861;DHT22;42744;51.094;3.490;2023-09-19T13:25:09;20.60;99.90
56861;DHT22;42744;51.094;3.490;2023-09-19T13:27:51;20.60;99.90
56861;DHT22;42744;51.094;3.490;2023-09-19T13:30:19;20.40;99.90
56861;DHT22;42744;51.094;3.490;2023-09-19T13:32:45;20.30;99.90
56861;DHT22;42744;51.094;3.490;2023-09-19T13:35:13;20.20;99.90
56861;DHT22;42744;51.094;3.490;2023-09-19T13:37:40;20.10;99.90
56861;DHT22;42744;51.094;3.490;2023-09-19T13:40:14;20.10;99.90
56861;DHT22;42744;51.094;3.490;2023-09-19T13:42:41;20.10;99.90
56861;DHT22;42744;51.094;3.490;2023-09-19T13:45:08;20.30;99.90
56861;DHT22;42744;51.094;3.490;2023-09-19T13:47:41;20.40;99.90
56861;DHT22;42744;51.094;3.490;2023-09-19T13:50:07;20.50;99.90
56861;DHT22;42744;51.094;3.490;2023-09-19T13:52:33;20.60;99.90
56861;DHT22;42744;51.094;3.490;2023-09-19T13:54:59;20.50;99.90
56861;DHT22;42744;51.094;3.490;2023-09-19T13:57:26;20.30;99.90
56861;DHT22;42744;51.094;3.490;2023-09-19T13:59:53;20.20;99.90
56861;DHT22;42744;51.094;3.490;2023-09-19T14:02:22;20.00;99.90
56861;DHT22;42744;51.094;3.490;2023-09-19T14:04:49;20.00;99.90
56861;DHT22;42744;51.094;3.490;2023-09-19T14:07:16;19.90;99.90
56861;DHT22;42744;51.094;3.490;2023-09-19T14:09:43;19.80;99.90
56861;DHT22;42744;51.094;3.490;2023-09-19T14:12:10;19.80;99.90
56861;DHT22;42744;51.094;3.490;2023-09-19T14:14:36;19.70;99.90
56861;DHT22;42744;51.094;3.490;2023-09-19T14:17:03;19.70;99.90
56861;DHT22;42744;51.094;3.490;2023-09-19T14:19:30;19.80;99.90
56861;DHT22;42744;51.094;3.490;2023-09-19T14:21:56;19.80;99.90
56861;DHT22;42744;51.094;3.490;2023-09-19T14:24:22;19.80;99.90
56861;DHT22;42744;51.094;3.490;2023-09-19T14:26:49;19.90;99.90
56861;DHT22;42744;51.094;3.490;2023-09-19T14:29:16;19.90;99.90
56861;DHT22;42744;51.094;3.490;2023-09-19T14:31:42;19.90;99.90
56861;DHT22;42744;51.094;3.490;2023-09-19T14:34:09;19.90;99.90
56861;DHT22;42744;51.094;3.490;2023-09-19T14:36:36;19.90;99.90
56861;DHT22;42744;51.094;3.490;2023-09-19T14:39:04;19.80;99.90
56861;DHT22;42744;51.094;3.490;2023-09-19T14:41:31;19.80;99.90
56861;DHT22;42744;51.094;3.490;2023-09-19T14:43:57;19.70;99.90
56861;DHT22;42744;51.094;3.490;2023-09-19T14:46:23;19.70;99.90
56861;DHT22;42744;51.094;3.490;2023-09-19T14:48:53;19.60;99.90
56861;DHT22;42744;51.094;3.490;2023-09-19T14:51:19;19.60;99.90
56861;DHT22;42744;51.094;3.490;2023-09-19T14:53:45;19.50;99.90
56861;DHT22;42744;51.094;3.490;2023-09-19T14:56:15;19.50;99.90
56861;DHT22;42744;51.094;3.490;2023-09-19T14:58:44;19.50;99.90
56861;DHT22;42744;51.094;3.490;2023-09-19T15:01:12;19.50;99.90
56861;DHT22;42744;51.094;3.490;2023-09-19T15:03:40;19.40;99.90
56861;DHT22;42744;51.094;3.490;2023-09-19T15:06:08;19.40;99.90
56861;DHT22;42744;51.094;3.490;2023-09-19T15:08:38;19.40;99.90
56861;DHT22;42744;51.094;3.490;2023-09-19T15:11:04;19.40;99.90
56861;DHT22;42744;51.094;3.490;2023-09-19T15:13:31;19.40;99.90
56861;DHT22;42744;51.094;3.490;2023-09-19T15:16:04;19.30;99.90
56861;DHT22;42744;51.094;3.490;2023-09-19T15:18:36;19.30;99.90
56861;DHT22;42744;51.094;3.490;2023-09-19T15:21:10;19.30;99.90
56861;DHT22;42744;51.094;3.490;2023-09-19T15:23:38;19.20;99.90
56861;DHT22;42744;51.094;3.490;2023-09-19T15:26:05;19.20;99.90
56861;DHT22;42744;51.094;3.490;2023-09-19T15:28:31;19.20;99.90
56861;DHT22;42744;51.094;3.490;2023-09-19T15:33:32;19.10;99.90
56861;DHT22;42744;51.094;3.490;2023-09-19T15:36:03;19.10;99.90
56861;DHT22;42744;51.094;3.490;2023-09-19T15:38:30;19.10;99.90
56861;DHT22;42744;51.094;3.490;2023-09-19T15:40:58;19.10;99.90
56861;DHT22;42744;51.094;3.490;2023-09-19T15:43:24;19.10;99.90
56861;DHT22;42744;51.094;3.490;2023-09-19T15:45:50;19.00;99.90
56861;DHT22;42744;51.094;3.490;2023-09-19T15:48:17;19.00;99.90
56861;DHT22;42744;51.094;3.490;2023-09-19T15:50:44;19.00;99.90
56861;DHT22;42744;51.094;3.490;2023-09-19T15:53:10;19.00;99.90
56861;DHT22;42744;51.094;3.490;2023-09-19T15:55:41;18.90;99.90
56861;DHT22;42744;51.094;3.490;2023-09-19T15:58:07;18.90;99.90
56861;DHT22;42744;51.094;3.490;2023-09-19T16:00:33;18.80;99.90
56861;DHT22;42744;51.094;3.490;2023-09-19T16:03:00;18.80;99.90
56861;DHT22;42744;51.094;3.490;2023-09-19T16:05:27;18.70;99.90
56861;DHT22;42744;51.094;3.490;2023-09-19T16:07:53;18.60;99.90
56861;DHT22;42744;51.094;3.490;2023-09-19T16:10:20;18.50;99.90
56861;DHT22;42744;51.094;3.490;2023-09-19T16:12:47;18.40;99.90
56861;DHT22;42744;51.094;3.490;2023-09-19T16:15:13;18.30;99.90
56861;DHT22;42744;51.094;3.490;2023-09-19T16:17:41;18.20;99.90
56861;DHT22;42744;51.094;3.490;2023-09-19T16:20:08;18.20;99.90
56861;DHT22;42744;51.094;3.490;2023-09-19T16:22:38;18.10;99.90
56861;DHT22;42744;51.094;3.490;2023-09-19T16:25:06;17.90;99.90
56861;DHT22;42744;51.094;3.490;2023-09-19T16:27:32;17.90;99.90
56861;DHT22;42744;51.094;3.490;2023-09-19T16:29:58;17.80;99.90
56861;DHT22;42744;51.094;3.490;2023-09-19T16:32:24;17.80;99.90
56861;DHT22;42744;51.094;3.490;2023-09-19T16:34:50;17.70;99.90
56861;DHT22;42744;51.094;3.490;2023-09-19T16:37:16;17.60;99.90
56861;DHT22;42744;51.094;3.490;2023-09-19T16:39:42;17.60;99.90
56861;DHT22;42744;51.094;3.490;2023-09-19T16:42:08;17.50;99.90
56861;DHT22;42744;51.094;3.490;2023-09-19T16:44:37;17.50;99.90